createdAt,value
2018-07-31T00:00:05.478Z,99.40
2018-07-31T00:05:06.034Z,99.60
2018-07-31T00:07:36.696Z,99.70
2018-07-31T00:10:09.816Z,99.80
2018-07-31T00:12:40.073Z,99.90
2018-07-31T00:15:12.054Z,99.90
2018-07-31T00:17:42.630Z,99.90
2018-07-31T00:20:13.344Z,99.90
2018-07-31T00:22:43.712Z,99.90
2018-07-31T00:25:14.269Z,99.90
2018-07-31T00:27:45.122Z,99.90
2018-07-31T00:30:15.788Z,99.90
2018-07-31T00:32:46.262Z,99.90
2018-07-31T00:35:16.800Z,99.90
2018-07-31T00:37:47.084Z,99.90
2018-07-31T00:40:18.129Z,99.90
2018-07-31T00:42:48.573Z,99.90
2018-07-31T00:45:18.915Z,99.90
2018-07-31T00:47:49.629Z,99.90
2018-07-31T00:50:21.633Z,99.90
2018-07-31T00:52:52.141Z,99.90
2018-07-31T00:55:22.481Z,99.90
2018-07-31T00:57:52.934Z,99.90
2018-07-31T01:00:23.960Z,99.90
2018-07-31T01:02:54.302Z,99.90
2018-07-31T01:07:56.126Z,99.90
2018-07-31T01:10:26.800Z,99.90
2018-07-31T01:12:57.125Z,99.90
2018-07-31T01:15:28.366Z,99.90
2018-07-31T01:17:58.966Z,99.90
2018-07-31T01:20:29.459Z,99.90
2018-07-31T01:22:59.899Z,99.90
2018-07-31T01:25:30.314Z,99.90
2018-07-31T01:28:00.693Z,99.90
2018-07-31T01:30:31.142Z,99.90
2018-07-31T01:33:02.287Z,99.90
2018-07-31T01:35:32.850Z,99.90
2018-07-31T01:38:03.303Z,99.90
2018-07-31T01:40:33.717Z,99.90
2018-07-31T01:43:04.201Z,99.90
2018-07-31T01:45:34.646Z,99.90
2018-07-31T01:48:05.466Z,99.90
2018-07-31T01:50:35.850Z,99.90
2018-07-31T01:53:06.362Z,99.90
2018-07-31T01:55:36.778Z,99.90
2018-07-31T01:58:07.683Z,99.90
2018-07-31T02:00:38.706Z,99.90
2018-07-31T02:03:09.346Z,99.90
2018-07-31T02:05:39.734Z,99.90
2018-07-31T02:08:10.513Z,99.90
2018-07-31T02:10:41.539Z,99.90
2018-07-31T02:13:11.911Z,99.90
2018-07-31T02:15:42.295Z,99.90
2018-07-31T02:18:13.867Z,99.90
2018-07-31T02:20:44.424Z,99.90
2018-07-31T02:23:14.801Z,99.90
2018-07-31T02:25:45.718Z,99.90
2018-07-31T02:28:16.447Z,99.90
2018-07-31T02:30:46.760Z,99.90
2018-07-31T02:33:17.574Z,99.90
2018-07-31T02:35:48.000Z,99.90
2018-07-31T02:38:18.603Z,99.90
2018-07-31T02:40:49.281Z,99.90
2018-07-31T02:43:20.225Z,99.90
2018-07-31T02:45:51.877Z,99.90
2018-07-31T02:48:22.294Z,99.90
2018-07-31T02:50:53.020Z,99.90
2018-07-31T02:53:23.706Z,99.90
2018-07-31T02:55:54.606Z,99.90
2018-07-31T02:58:25.383Z,99.90
2018-07-31T03:00:55.898Z,99.90
2018-07-31T03:03:26.484Z,99.90
2018-07-31T03:05:57.177Z,99.90
2018-07-31T03:08:27.779Z,99.90
2018-07-31T03:10:58.634Z,99.90
2018-07-31T03:13:29.166Z,99.90
2018-07-31T03:16:00.036Z,99.90
2018-07-31T03:18:30.611Z,99.90
2018-07-31T03:21:01.332Z,99.90
2018-07-31T03:23:31.737Z,99.90
2018-07-31T03:26:02.254Z,99.90
2018-07-31T03:28:33.415Z,99.90
2018-07-31T03:31:03.882Z,99.90
2018-07-31T03:33:34.159Z,99.90
2018-07-31T03:36:05.055Z,99.90
2018-07-31T03:38:35.566Z,99.90
2018-07-31T03:41:06.147Z,99.90
2018-07-31T03:43:37.175Z,99.90
2018-07-31T03:46:07.625Z,99.90
2018-07-31T03:48:38.127Z,99.90
2018-07-31T03:51:08.623Z,99.90
2018-07-31T03:53:40.494Z,99.90
2018-07-31T03:56:11.023Z,99.90
2018-07-31T03:58:41.519Z,99.90
2018-07-31T04:01:11.979Z,99.90
2018-07-31T04:03:43.026Z,99.90
2018-07-31T04:06:13.762Z,99.90
2018-07-31T04:08:44.261Z,99.90
2018-07-31T04:11:14.746Z,99.90
2018-07-31T04:13:45.089Z,99.90
2018-07-31T04:16:15.482Z,99.90
2018-07-31T04:18:46.357Z,99.90
2018-07-31T04:21:16.881Z,99.90
2018-07-31T04:23:47.182Z,99.90
2018-07-31T04:28:48.151Z,99.90
2018-07-31T04:31:18.526Z,99.90
2018-07-31T04:33:51.864Z,99.90
2018-07-31T04:36:23.574Z,99.90
2018-07-31T04:38:54.260Z,99.90
2018-07-31T04:41:26.289Z,99.90
2018-07-31T04:43:56.922Z,99.90
2018-07-31T04:46:27.342Z,99.90
2018-07-31T04:48:57.830Z,99.90
2018-07-31T04:51:28.411Z,99.90
2018-07-31T04:53:59.106Z,99.90
2018-07-31T04:56:29.403Z,99.90
2018-07-31T04:58:59.781Z,99.90
2018-07-31T05:01:30.080Z,99.90
2018-07-31T05:04:02.138Z,99.90
2018-07-31T05:06:33.489Z,99.90
2018-07-31T05:09:04.467Z,99.90
2018-07-31T05:11:35.467Z,99.90
2018-07-31T05:14:06.270Z,99.90
2018-07-31T05:16:36.778Z,99.90
2018-07-31T05:19:09.010Z,99.90
2018-07-31T05:21:39.360Z,99.90
2018-07-31T05:24:11.009Z,99.90
2018-07-31T05:26:42.502Z,99.90
2018-07-31T05:29:13.004Z,99.90
2018-07-31T05:31:43.542Z,99.90
2018-07-31T05:34:14.246Z,99.90
2018-07-31T05:36:44.935Z,99.90
2018-07-31T05:39:20.607Z,99.90
2018-07-31T05:41:51.206Z,99.90
2018-07-31T05:44:22.226Z,99.90
2018-07-31T05:46:56.861Z,99.90
2018-07-31T05:49:30.621Z,99.90
2018-07-31T05:52:03.271Z,99.90
2018-07-31T05:57:05.858Z,99.90
2018-07-31T05:59:36.613Z,99.90
2018-07-31T06:02:07.025Z,99.90
2018-07-31T06:04:37.607Z,99.90
2018-07-31T06:07:08.317Z,99.90
2018-07-31T06:09:38.830Z,99.90
2018-07-31T06:12:09.146Z,99.90
2018-07-31T06:14:40.085Z,99.90
2018-07-31T06:17:10.678Z,99.90
2018-07-31T06:19:41.202Z,99.90
2018-07-31T06:22:11.626Z,99.90
2018-07-31T06:27:11.936Z,99.90
2018-07-31T06:29:42.500Z,99.90
2018-07-31T06:32:13.315Z,99.90
2018-07-31T06:34:43.779Z,99.90
2018-07-31T06:37:14.210Z,99.90
2018-07-31T06:39:44.731Z,99.90
2018-07-31T06:42:15.657Z,99.90
2018-07-31T06:47:16.090Z,99.90
2018-07-31T06:49:46.455Z,99.90
2018-07-31T06:52:17.470Z,99.90
2018-07-31T06:54:47.923Z,99.90
2018-07-31T06:57:18.507Z,99.90
2018-07-31T06:59:50.054Z,99.90
2018-07-31T07:02:20.590Z,99.90
2018-07-31T07:04:51.177Z,99.90
2018-07-31T07:07:22.114Z,99.90
2018-07-31T07:09:52.647Z,99.90
2018-07-31T07:12:23.113Z,99.90
2018-07-31T07:14:53.580Z,99.90
2018-07-31T07:17:23.989Z,99.90
2018-07-31T07:19:54.329Z,99.90
2018-07-31T07:22:25.146Z,99.90
2018-07-31T07:24:56.485Z,99.90
2018-07-31T07:27:26.997Z,99.90
2018-07-31T07:29:58.022Z,99.90
2018-07-31T07:32:28.774Z,99.90
2018-07-31T07:34:59.787Z,99.90
2018-07-31T07:37:30.771Z,99.90
2018-07-31T07:40:01.658Z,99.90
2018-07-31T07:42:32.388Z,99.90
2018-07-31T07:45:03.359Z,99.90
2018-07-31T07:50:05.274Z,99.30
2018-07-31T07:52:35.989Z,99.90
2018-07-31T07:55:06.431Z,99.30
2018-07-31T07:57:37.646Z,99.40
2018-07-31T08:00:09.789Z,98.60
2018-07-31T08:02:40.210Z,99.70
2018-07-31T08:05:11.139Z,98.20
2018-07-31T08:07:41.535Z,98.50
2018-07-31T08:10:12.200Z,97.70
2018-07-31T08:12:42.798Z,97.10
2018-07-31T08:15:13.070Z,96.20
2018-07-31T08:17:43.547Z,96.20
2018-07-31T08:20:14.544Z,95.00
2018-07-31T08:22:45.007Z,94.90
2018-07-31T08:25:15.470Z,95.10
2018-07-31T08:27:46.199Z,95.20
2018-07-31T08:30:16.997Z,94.00
2018-07-31T08:32:47.503Z,94.30
2018-07-31T08:35:18.242Z,94.40
2018-07-31T08:37:48.755Z,93.90
2018-07-31T08:40:19.401Z,93.70
2018-07-31T08:42:51.116Z,93.80
2018-07-31T08:45:22.067Z,92.50
2018-07-31T08:47:52.617Z,92.60
2018-07-31T08:50:22.962Z,92.60
2018-07-31T08:52:53.806Z,91.80
2018-07-31T08:55:24.176Z,92.00
2018-07-31T09:00:24.452Z,91.70
2018-07-31T09:02:55.302Z,91.40
2018-07-31T09:05:25.877Z,92.60
2018-07-31T09:07:56.988Z,91.00
2018-07-31T09:10:29.011Z,90.70
2018-07-31T09:13:06.671Z,90.30
2018-07-31T09:15:38.993Z,88.90
2018-07-31T09:18:11.974Z,87.40
2018-07-31T09:20:42.720Z,88.50
2018-07-31T09:23:13.119Z,89.10
2018-07-31T09:25:48.130Z,89.20
2018-07-31T09:28:20.689Z,88.20
2018-07-31T09:54:04.520Z,87.80
2018-07-31T09:56:37.269Z,88.80
2018-07-31T09:59:12.865Z,86.10
2018-07-31T10:01:46.738Z,84.00
2018-07-31T10:04:19.861Z,84.20
2018-07-31T10:06:54.147Z,84.10
2018-07-31T10:09:25.074Z,84.10
2018-07-31T10:12:27.274Z,84.20
2018-07-31T10:15:01.173Z,83.40
2018-07-31T10:17:35.532Z,84.40
2018-07-31T10:20:09.636Z,83.30
2018-07-31T10:22:42.827Z,82.00
2018-07-31T10:25:17.732Z,83.90
2018-07-31T10:27:51.848Z,80.30
2018-07-31T10:30:23.251Z,80.00
2018-07-31T10:32:56.119Z,80.00
2018-07-31T10:35:29.041Z,78.90
2018-07-31T10:37:59.590Z,81.30
2018-07-31T10:40:30.857Z,81.10
2018-07-31T10:43:02.216Z,80.60
2018-07-31T10:45:32.736Z,81.00
2018-07-31T10:48:04.286Z,79.70
2018-07-31T10:50:34.996Z,80.40
2018-07-31T10:53:08.676Z,79.00
2018-07-31T10:55:39.807Z,77.90
2018-07-31T10:58:10.547Z,79.50
2018-07-31T11:00:41.391Z,79.70
2018-07-31T11:03:13.355Z,79.10
2018-07-31T11:05:43.762Z,77.40
2018-07-31T11:08:14.570Z,77.30
2018-07-31T11:10:47.034Z,77.50
2018-07-31T11:13:17.843Z,77.10
2018-07-31T11:15:48.746Z,75.60
2018-07-31T11:18:20.743Z,76.30
2018-07-31T11:20:51.210Z,77.40
2018-07-31T11:23:21.826Z,75.10
2018-07-31T11:25:52.226Z,73.50
2018-07-31T11:28:23.050Z,73.50
2018-07-31T11:30:53.486Z,73.80
2018-07-31T11:33:23.918Z,73.00
2018-07-31T11:35:54.982Z,74.00
2018-07-31T11:38:25.449Z,71.90
2018-07-31T11:40:56.186Z,72.70
2018-07-31T11:43:26.863Z,72.80
2018-07-31T11:45:57.339Z,71.30
2018-07-31T11:48:28.390Z,69.40
2018-07-31T11:50:58.927Z,69.80
2018-07-31T11:53:29.305Z,70.80
2018-07-31T11:55:59.990Z,70.90
2018-07-31T11:58:30.976Z,71.00
2018-07-31T12:01:01.376Z,71.70
2018-07-31T12:03:31.958Z,70.30
2018-07-31T12:06:02.378Z,70.00
2018-07-31T12:08:35.003Z,70.40
2018-07-31T12:11:05.448Z,70.60
2018-07-31T12:13:36.002Z,71.40
2018-07-31T12:16:06.773Z,70.60
2018-07-31T12:18:37.234Z,70.30
2018-07-31T12:21:07.698Z,70.70
2018-07-31T12:23:38.190Z,69.80
2018-07-31T12:26:08.697Z,69.40
2018-07-31T12:28:54.459Z,68.40
2018-07-31T12:31:42.303Z,69.60
2018-07-31T12:34:13.450Z,70.40
2018-07-31T12:36:44.148Z,69.20
2018-07-31T12:39:16.205Z,67.70
2018-07-31T12:41:46.979Z,66.80
2018-07-31T12:44:17.958Z,67.70
2018-07-31T12:46:48.166Z,68.00
2018-07-31T12:49:18.454Z,67.20
2018-07-31T12:51:49.219Z,66.90
2018-07-31T12:59:19.257Z,68.60
2018-07-31T13:01:50.520Z,68.70
2018-07-31T13:04:21.011Z,68.50
2018-07-31T13:06:51.513Z,67.30
2018-07-31T13:11:52.110Z,68.30
2018-07-31T13:14:22.396Z,67.90
2018-07-31T13:16:52.715Z,68.90
2018-07-31T13:19:23.586Z,69.00
2018-07-31T13:21:53.874Z,68.70
2018-07-31T13:24:24.241Z,68.10
2018-07-31T13:26:57.168Z,67.20
2018-07-31T13:29:27.511Z,68.50
2018-07-31T13:31:57.949Z,68.40
2018-07-31T13:34:28.450Z,66.40
2018-07-31T13:36:58.930Z,66.80
2018-07-31T13:39:29.809Z,66.00
2018-07-31T13:42:00.131Z,65.60
2018-07-31T13:44:31.266Z,64.60
2018-07-31T13:47:02.521Z,64.00
2018-07-31T13:49:32.858Z,62.90
2018-07-31T13:52:04.139Z,64.50
2018-07-31T13:54:34.777Z,64.00
2018-07-31T13:57:05.453Z,63.50
2018-07-31T13:59:35.954Z,63.10
2018-07-31T14:02:06.967Z,61.90
2018-07-31T14:04:37.470Z,62.80
2018-07-31T14:07:08.111Z,64.40
2018-07-31T14:09:38.861Z,63.70
2018-07-31T14:12:10.885Z,64.00
2018-07-31T14:14:41.450Z,64.50
2018-07-31T14:17:12.082Z,65.50
2018-07-31T14:19:42.308Z,66.80
2018-07-31T14:22:12.749Z,68.40
2018-07-31T14:24:43.217Z,68.20
2018-07-31T14:27:13.931Z,68.90
2018-07-31T14:29:44.405Z,69.20
2018-07-31T14:32:14.906Z,69.60
2018-07-31T14:34:46.072Z,70.00
2018-07-31T14:37:16.431Z,69.80
2018-07-31T14:39:46.873Z,69.50
2018-07-31T14:42:17.746Z,69.10
2018-07-31T14:44:48.633Z,68.90
2018-07-31T14:47:19.166Z,69.40
2018-07-31T14:49:49.834Z,69.10
2018-07-31T14:52:20.554Z,68.60
2018-07-31T14:54:51.202Z,68.30
2018-07-31T14:57:22.014Z,68.20
2018-07-31T14:59:52.427Z,67.90
2018-07-31T15:02:23.083Z,68.20
2018-07-31T15:04:53.768Z,68.00
2018-07-31T15:10:03.178Z,68.80
2018-07-31T15:12:33.567Z,68.20
2018-07-31T15:15:06.050Z,68.40
2018-07-31T15:17:36.845Z,68.60
2018-07-31T15:25:07.559Z,67.40
2018-07-31T15:27:38.291Z,66.90
2018-07-31T15:30:09.538Z,66.60
2018-07-31T15:32:40.166Z,66.00
2018-07-31T15:35:10.619Z,65.30
2018-07-31T15:37:41.394Z,66.10
2018-07-31T15:40:12.730Z,66.60
2018-07-31T15:42:44.144Z,66.40
2018-07-31T15:45:14.792Z,66.00
2018-07-31T15:47:45.736Z,68.50
2018-07-31T15:50:16.300Z,69.40
2018-07-31T15:52:46.996Z,68.80
2018-07-31T15:55:17.732Z,69.50
2018-07-31T15:57:48.566Z,70.10
2018-07-31T16:00:19.020Z,71.70
2018-07-31T16:02:49.538Z,71.50
2018-07-31T16:05:20.893Z,71.80
2018-07-31T16:07:51.362Z,72.20
2018-07-31T16:10:22.099Z,71.90
2018-07-31T16:12:52.811Z,72.30
2018-07-31T16:15:23.870Z,71.90
2018-07-31T16:17:54.407Z,71.90
2018-07-31T16:20:24.795Z,72.20
2018-07-31T16:22:55.377Z,71.60
2018-07-31T16:25:26.310Z,72.50
2018-07-31T16:27:57.059Z,72.50
2018-07-31T16:30:27.513Z,73.90
2018-07-31T16:32:57.947Z,74.10
2018-07-31T16:35:28.638Z,73.90
2018-07-31T16:37:59.234Z,74.30
2018-07-31T16:40:31.242Z,74.50
2018-07-31T16:43:02.295Z,74.40
2018-07-31T16:45:32.955Z,74.00
2018-07-31T16:48:03.327Z,74.90
2018-07-31T16:50:34.714Z,74.60
2018-07-31T16:53:05.563Z,74.80
2018-07-31T16:55:36.087Z,74.80
2018-07-31T16:58:06.833Z,75.00
2018-07-31T17:00:37.594Z,75.30
2018-07-31T17:03:08.571Z,75.50
2018-07-31T17:05:39.578Z,75.40
2018-07-31T17:08:10.870Z,75.70
2018-07-31T17:10:42.227Z,75.80
2018-07-31T17:13:12.954Z,76.30
2018-07-31T17:15:44.041Z,76.70
2018-07-31T17:18:14.746Z,77.20
2018-07-31T17:20:45.404Z,77.60
2018-07-31T17:23:16.410Z,77.60
2018-07-31T17:25:47.182Z,77.50
2018-07-31T17:28:18.212Z,77.70
2018-07-31T17:30:49.153Z,77.90
2018-07-31T17:33:19.901Z,78.20
2018-07-31T17:35:50.543Z,78.30
2018-07-31T17:38:21.402Z,78.30
2018-07-31T17:40:52.410Z,78.70
2018-07-31T17:43:22.737Z,79.00
2018-07-31T17:45:55.304Z,79.20
2018-07-31T17:48:27.032Z,79.40
2018-07-31T17:50:58.561Z,79.20
2018-07-31T17:53:29.098Z,78.80
2018-07-31T17:56:01.502Z,78.40
2018-07-31T17:58:32.271Z,78.60
2018-07-31T18:01:03.330Z,78.90
2018-07-31T18:03:34.882Z,79.40
2018-07-31T18:06:09.015Z,79.40
2018-07-31T18:08:40.100Z,79.30
2018-07-31T18:11:10.601Z,79.20
2018-07-31T18:13:41.843Z,79.10
2018-07-31T18:16:12.418Z,79.50
2018-07-31T18:18:42.987Z,79.20
2018-07-31T18:21:13.914Z,79.40
2018-07-31T18:23:45.199Z,80.10
2018-07-31T18:26:15.591Z,79.90
2018-07-31T18:28:46.300Z,79.80
2018-07-31T18:31:16.671Z,80.90
2018-07-31T18:33:48.512Z,80.10
2018-07-31T18:36:18.838Z,80.50
2018-07-31T18:41:16.401Z,80.20
2018-07-31T18:43:47.559Z,80.50
2018-07-31T18:46:18.094Z,80.20
2018-07-31T18:48:48.698Z,80.30
2018-07-31T18:51:20.493Z,80.10
2018-07-31T18:53:51.009Z,79.90
2018-07-31T18:56:22.024Z,79.80
2018-07-31T18:58:52.682Z,79.80
2018-07-31T19:01:23.494Z,80.00
2018-07-31T19:03:54.110Z,80.40
2018-07-31T19:06:25.826Z,80.30
2018-07-31T19:08:56.757Z,80.70
2018-07-31T19:11:27.550Z,80.70
2018-07-31T19:13:58.552Z,80.70
2018-07-31T19:16:30.585Z,80.70
2018-07-31T19:19:01.824Z,80.90
2018-07-31T19:21:33.148Z,80.80
2018-07-31T19:24:03.756Z,80.50
2018-07-31T19:26:36.010Z,80.60
2018-07-31T19:29:07.443Z,80.60
2018-07-31T19:31:38.253Z,80.50
2018-07-31T19:34:08.900Z,80.60
2018-07-31T19:36:47.464Z,80.40
2018-07-31T19:39:22.585Z,80.90
2018-07-31T19:41:53.886Z,80.80
2018-07-31T19:44:25.370Z,80.80
2018-07-31T19:46:58.466Z,81.30
2018-07-31T19:49:30.021Z,81.10
2018-07-31T19:52:01.062Z,81.40
2018-07-31T19:54:32.071Z,81.40
2018-07-31T19:57:02.690Z,81.50
2018-07-31T19:59:33.263Z,81.00
2018-07-31T20:04:34.290Z,81.20
2018-07-31T20:07:05.589Z,81.70
2018-07-31T20:09:37.111Z,81.70
2018-07-31T20:12:07.834Z,81.70
2018-07-31T20:14:38.310Z,81.60
2018-07-31T20:17:09.379Z,81.70
2018-07-31T20:19:41.765Z,81.60
2018-07-31T20:22:13.063Z,81.50
2018-07-31T20:24:43.770Z,81.70
2018-07-31T20:27:14.079Z,81.70
2018-07-31T20:29:44.430Z,81.90
2018-07-31T20:32:15.298Z,81.90
2018-07-31T20:34:45.852Z,82.00
2018-07-31T20:37:16.336Z,81.50
2018-07-31T20:39:47.176Z,82.50
2018-07-31T20:42:17.522Z,82.20
2018-07-31T20:44:47.918Z,82.30
2018-07-31T20:47:18.236Z,82.70
2018-07-31T20:49:48.948Z,83.00
2018-07-31T20:52:19.419Z,82.80
2018-07-31T20:54:49.932Z,82.90
2018-07-31T20:57:20.645Z,83.00
2018-07-31T20:59:51.520Z,82.60
2018-07-31T21:02:21.806Z,82.10
2018-07-31T21:04:52.668Z,82.70
2018-07-31T21:07:23.507Z,82.90
2018-07-31T21:09:54.004Z,82.70
2018-07-31T21:12:24.961Z,82.40
2018-07-31T21:14:55.843Z,82.90
2018-07-31T21:17:26.346Z,82.50
2018-07-31T21:19:57.247Z,82.90
2018-07-31T21:22:27.970Z,82.90
2018-07-31T21:24:58.602Z,83.20
2018-07-31T21:27:29.005Z,83.40
2018-07-31T21:29:59.853Z,83.20
2018-07-31T21:32:30.495Z,83.40
2018-07-31T21:35:00.863Z,83.10
2018-07-31T21:37:31.446Z,83.50
2018-07-31T21:40:02.468Z,83.50
2018-07-31T21:42:32.993Z,84.20
2018-07-31T21:45:03.863Z,83.70
2018-07-31T21:47:34.941Z,83.80
2018-07-31T21:50:05.690Z,83.90
2018-07-31T21:52:36.461Z,83.90
2018-07-31T21:55:07.331Z,84.20
2018-07-31T21:57:37.773Z,83.90
2018-07-31T22:00:11.491Z,83.90
2018-07-31T22:02:42.666Z,84.10
2018-07-31T22:05:13.347Z,84.70
2018-07-31T22:07:43.947Z,84.80
2018-07-31T22:10:14.261Z,85.30
2018-07-31T22:12:44.779Z,85.10
2018-07-31T22:15:15.694Z,85.70
2018-07-31T22:17:46.438Z,85.30
2018-07-31T22:20:16.866Z,85.50
2018-07-31T22:22:47.685Z,85.60
2018-07-31T22:25:18.683Z,85.90
2018-07-31T22:27:49.366Z,86.20
2018-07-31T22:30:20.291Z,87.30
2018-07-31T22:35:20.716Z,87.30
2018-07-31T22:37:51.153Z,87.60
2018-07-31T22:40:21.523Z,87.40
2018-07-31T22:42:52.110Z,87.30
2018-07-31T22:45:23.051Z,87.50
2018-07-31T22:47:53.595Z,88.00
2018-07-31T22:50:24.342Z,88.50
2018-07-31T22:55:24.766Z,89.10
2018-07-31T22:57:55.349Z,89.00
2018-07-31T23:00:26.110Z,89.60
2018-07-31T23:02:57.064Z,89.60
2018-07-31T23:07:57.787Z,89.70
2018-07-31T23:10:29.722Z,90.10
2018-07-31T23:13:00.395Z,90.00
2018-07-31T23:15:31.083Z,90.20
2018-07-31T23:18:01.957Z,90.30
2018-07-31T23:20:32.799Z,90.40
2018-07-31T23:23:03.274Z,90.70
2018-07-31T23:25:34.000Z,90.70
2018-07-31T23:28:05.938Z,90.90
2018-07-31T23:30:39.050Z,90.80
2018-07-31T23:35:39.558Z,90.80
2018-07-31T23:38:10.063Z,91.10
2018-07-31T23:40:40.499Z,91.10
2018-07-31T23:43:10.843Z,91.00
2018-07-31T23:45:41.395Z,91.10
2018-07-31T23:48:12.147Z,91.00
2018-07-31T23:50:42.533Z,91.30
2018-07-31T23:53:13.006Z,91.50
2018-07-31T23:55:43.592Z,91.30
2018-07-31T23:58:14.059Z,91.40
